sensor_id;sensor_type;location;lat;lon;timestamp;P1;durP1;ratioP1;P2;durP2;ratioP2
10013;SDS011;45684;48.358;10.746;2022-08-03T00:01:52;2.13;;;2.00;;
10013;SDS011;45684;48.358;10.746;2022-08-03T00:04:20;2.40;;;2.20;;
10013;SDS011;45684;48.358;10.746;2022-08-03T00:06:48;2.17;;;2.07;;
10013;SDS011;45684;48.358;10.746;2022-08-03T00:09:16;2.33;;;2.13;;
10013;SDS011;45684;48.358;10.746;2022-08-03T00:11:44;2.47;;;2.27;;
10013;SDS011;45684;48.358;10.746;2022-08-03T00:14:12;2.90;;;2.40;;
10013;SDS011;45684;48.358;10.746;2022-08-03T00:16:41;2.37;;;2.07;;
10013;SDS011;45684;48.358;10.746;2022-08-03T00:19:09;2.67;;;2.43;;
10013;SDS011;45684;48.358;10.746;2022-08-03T00:21:36;2.00;;;1.90;;
10013;SDS011;45684;48.358;10.746;2022-08-03T00:24:05;2.97;;;2.20;;
10013;SDS011;45684;48.358;10.746;2022-08-03T00:26:33;2.70;;;2.30;;
10013;SDS011;45684;48.358;10.746;2022-08-03T00:29:00;2.53;;;2.33;;
10013;SDS011;45684;48.358;10.746;2022-08-03T00:31:28;3.53;;;2.20;;
10013;SDS011;45684;48.358;10.746;2022-08-03T00:34:18;2.43;;;2.23;;
10013;SDS011;45684;48.358;10.746;2022-08-03T00:36:59;2.73;;;2.20;;
10013;SDS011;45684;48.358;10.746;2022-08-03T00:39:27;2.53;;;1.97;;
10013;SDS011;45684;48.358;10.746;2022-08-03T00:41:55;4.67;;;2.10;;
10013;SDS011;45684;48.358;10.746;2022-08-03T00:44:23;2.20;;;2.07;;
10013;SDS011;45684;48.358;10.746;2022-08-03T00:46:51;2.30;;;2.10;;
10013;SDS011;45684;48.358;10.746;2022-08-03T00:49:20;2.37;;;2.17;;
10013;SDS011;45684;48.358;10.746;2022-08-03T00:51:48;2.23;;;2.13;;
10013;SDS011;45684;48.358;10.746;2022-08-03T00:54:16;2.40;;;2.20;;
10013;SDS011;45684;48.358;10.746;2022-08-03T00:56:45;2.40;;;2.20;;
10013;SDS011;45684;48.358;10.746;2022-08-03T00:59:25;2.83;;;2.57;;
10013;SDS011;45684;48.358;10.746;2022-08-03T01:01:53;2.27;;;2.07;;
10013;SDS011;45684;48.358;10.746;2022-08-03T01:04:23;2.17;;;2.07;;
10013;SDS011;45684;48.358;10.746;2022-08-03T01:06:52;2.50;;;2.13;;
10013;SDS011;45684;48.358;10.746;2022-08-03T01:09:31;3.27;;;2.20;;
10013;SDS011;45684;48.358;10.746;2022-08-03T01:12:09;2.57;;;2.20;;
10013;SDS011;45684;48.358;10.746;2022-08-03T01:14:43;2.53;;;2.13;;
10013;SDS011;45684;48.358;10.746;2022-08-03T01:17:18;2.80;;;2.37;;
10013;SDS011;45684;48.358;10.746;2022-08-03T01:20:02;2.47;;;2.27;;
10013;SDS011;45684;48.358;10.746;2022-08-03T01:22:39;2.40;;;2.20;;
10013;SDS011;45684;48.358;10.746;2022-08-03T01:25:27;2.93;;;2.00;;
10013;SDS011;45684;48.358;10.746;2022-08-03T01:28:10;3.73;;;2.20;;
10013;SDS011;45684;48.358;10.746;2022-08-03T01:30:51;3.73;;;2.20;;
10013;SDS011;45684;48.358;10.746;2022-08-03T01:33:23;2.50;;;2.30;;
10013;SDS011;45684;48.358;10.746;2022-08-03T01:35:57;2.17;;;2.07;;
10013;SDS011;45684;48.358;10.746;2022-08-03T01:38:31;2.50;;;2.30;;
10013;SDS011;45684;48.358;10.746;2022-08-03T01:41:01;2.43;;;2.10;;
10013;SDS011;45684;48.358;10.746;2022-08-03T01:43:32;5.27;;;2.40;;
10013;SDS011;45684;48.358;10.746;2022-08-03T01:46:24;2.17;;;2.07;;
10013;SDS011;45684;48.358;10.746;2022-08-03T01:48:52;3.60;;;2.10;;
10013;SDS011;45684;48.358;10.746;2022-08-03T01:51:22;3.10;;;2.30;;
10013;SDS011;45684;48.358;10.746;2022-08-03T01:54:10;2.87;;;2.20;;
10013;SDS011;45684;48.358;10.746;2022-08-03T01:56:40;3.00;;;2.30;;
10013;SDS011;45684;48.358;10.746;2022-08-03T01:59:10;3.70;;;2.50;;
10013;SDS011;45684;48.358;10.746;2022-08-03T02:01:42;2.37;;;2.17;;
10013;SDS011;45684;48.358;10.746;2022-08-03T02:04:31;3.33;;;2.13;;
10013;SDS011;45684;48.358;10.746;2022-08-03T02:07:01;2.20;;;2.10;;
10013;SDS011;45684;48.358;10.746;2022-08-03T02:09:29;2.43;;;2.20;;
10013;SDS011;45684;48.358;10.746;2022-08-03T02:11:58;3.10;;;2.30;;
10013;SDS011;45684;48.358;10.746;2022-08-03T02:14:27;3.43;;;2.30;;
10013;SDS011;45684;48.358;10.746;2022-08-03T02:16:58;2.83;;;2.47;;
10013;SDS011;45684;48.358;10.746;2022-08-03T02:19:27;2.27;;;2.03;;
10013;SDS011;45684;48.358;10.746;2022-08-03T02:22:01;3.20;;;2.00;;
10013;SDS011;45684;48.358;10.746;2022-08-03T02:24:31;3.33;;;2.30;;
10013;SDS011;45684;48.358;10.746;2022-08-03T02:26:59;4.60;;;2.63;;
10013;SDS011;45684;48.358;10.746;2022-08-03T02:29:31;3.20;;;2.30;;
10013;SDS011;45684;48.358;10.746;2022-08-03T02:32:07;6.27;;;2.20;;
10013;SDS011;45684;48.358;10.746;2022-08-03T02:34:36;3.60;;;2.47;;
10013;SDS011;45684;48.358;10.746;2022-08-03T02:37:09;4.10;;;2.30;;
10013;SDS011;45684;48.358;10.746;2022-08-03T02:39:38;2.20;;;2.00;;
10013;SDS011;45684;48.358;10.746;2022-08-03T02:42:08;2.20;;;2.00;;
10013;SDS011;45684;48.358;10.746;2022-08-03T02:44:39;1.97;;;1.87;;
10013;SDS011;45684;48.358;10.746;2022-08-03T02:47:14;2.57;;;2.00;;
10013;SDS011;45684;48.358;10.746;2022-08-03T02:49:47;2.20;;;2.00;;
10013;SDS011;45684;48.358;10.746;2022-08-03T02:52:18;2.30;;;2.10;;
10013;SDS011;45684;48.358;10.746;2022-08-03T02:54:49;6.33;;;2.43;;
10013;SDS011;45684;48.358;10.746;2022-08-03T02:57:21;2.17;;;2.07;;
10013;SDS011;45684;48.358;10.746;2022-08-03T02:59:51;2.37;;;2.17;;
10013;SDS011;45684;48.358;10.746;2022-08-03T03:02:22;2.10;;;2.00;;
10013;SDS011;45684;48.358;10.746;2022-08-03T03:04:51;3.03;;;2.20;;
10013;SDS011;45684;48.358;10.746;2022-08-03T03:07:41;2.40;;;2.20;;
10013;SDS011;45684;48.358;10.746;2022-08-03T03:10:17;2.87;;;2.30;;
10013;SDS011;45684;48.358;10.746;2022-08-03T03:12:47;3.10;;;2.40;;
10013;SDS011;45684;48.358;10.746;2022-08-03T03:15:17;2.53;;;2.30;;
10013;SDS011;45684;48.358;10.746;2022-08-03T03:17:47;2.50;;;2.30;;
10013;SDS011;45684;48.358;10.746;2022-08-03T03:20:16;3.07;;;2.10;;
10013;SDS011;45684;48.358;10.746;2022-08-03T03:22:55;2.30;;;2.10;;
10013;SDS011;45684;48.358;10.746;2022-08-03T03:25:25;2.30;;;2.20;;
10013;SDS011;45684;48.358;10.746;2022-08-03T03:27:53;2.40;;;2.20;;
10013;SDS011;45684;48.358;10.746;2022-08-03T03:30:21;2.40;;;2.10;;
10013;SDS011;45684;48.358;10.746;2022-08-03T03:32:51;3.43;;;2.27;;
10013;SDS011;45684;48.358;10.746;2022-08-03T03:35:19;3.47;;;2.10;;
10013;SDS011;45684;48.358;10.746;2022-08-03T03:37:47;2.30;;;2.10;;
10013;SDS011;45684;48.358;10.746;2022-08-03T03:40:16;3.40;;;2.20;;
10013;SDS011;45684;48.358;10.746;2022-08-03T03:42:44;2.13;;;2.03;;
10013;SDS011;45684;48.358;10.746;2022-08-03T03:45:12;4.43;;;2.30;;
10013;SDS011;45684;48.358;10.746;2022-08-03T03:47:41;2.40;;;2.20;;
10013;SDS011;45684;48.358;10.746;2022-08-03T03:50:11;3.40;;;2.00;;
10013;SDS011;45684;48.358;10.746;2022-08-03T03:52:39;2.47;;;2.20;;
10013;SDS011;45684;48.358;10.746;2022-08-03T03:55:07;2.60;;;2.03;;
10013;SDS011;45684;48.358;10.746;2022-08-03T03:57:35;3.43;;;2.27;;
10013;SDS011;45684;48.358;10.746;2022-08-03T04:00:03;3.00;;;2.50;;
10013;SDS011;45684;48.358;10.746;2022-08-03T04:02:31;2.87;;;2.30;;
10013;SDS011;45684;48.358;10.746;2022-08-03T04:04:59;2.77;;;2.57;;
10013;SDS011;45684;48.358;10.746;2022-08-03T04:07:58;2.70;;;2.50;;
10013;SDS011;45684;48.358;10.746;2022-08-03T04:10:46;3.67;;;2.43;;
10013;SDS011;45684;48.358;10.746;2022-08-03T04:13:28;2.80;;;2.40;;
10013;SDS011;45684;48.358;10.746;2022-08-03T04:15:59;2.60;;;2.40;;
10013;SDS011;45684;48.358;10.746;2022-08-03T04:18:28;2.53;;;2.33;;
10013;SDS011;45684;48.358;10.746;2022-08-03T04:21:00;2.60;;;2.40;;
10013;SDS011;45684;48.358;10.746;2022-08-03T04:23:32;2.37;;;2.17;;
10013;SDS011;45684;48.358;10.746;2022-08-03T04:26:02;3.40;;;2.43;;
10013;SDS011;45684;48.358;10.746;2022-08-03T04:28:35;2.97;;;2.33;;
10013;SDS011;45684;48.358;10.746;2022-08-03T04:31:04;2.37;;;2.20;;
10013;SDS011;45684;48.358;10.746;2022-08-03T04:33:34;2.40;;;2.20;;
10013;SDS011;45684;48.358;10.746;2022-08-03T04:36:05;2.33;;;2.13;;
10013;SDS011;45684;48.358;10.746;2022-08-03T04:38:37;4.53;;;2.40;;
10013;SDS011;45684;48.358;10.746;2022-08-03T04:41:10;2.80;;;2.40;;
10013;SDS011;45684;48.358;10.746;2022-08-03T04:43:39;3.30;;;2.20;;
10013;SDS011;45684;48.358;10.746;2022-08-03T04:46:07;5.60;;;2.47;;
10013;SDS011;45684;48.358;10.746;2022-08-03T04:48:36;2.60;;;2.40;;
10013;SDS011;45684;48.358;10.746;2022-08-03T04:51:09;3.03;;;2.20;;
10013;SDS011;45684;48.358;10.746;2022-08-03T04:53:39;3.77;;;2.50;;
10013;SDS011;45684;48.358;10.746;2022-08-03T04:56:07;2.77;;;2.57;;
10013;SDS011;45684;48.358;10.746;2022-08-03T04:58:35;2.47;;;2.27;;
10013;SDS011;45684;48.358;10.746;2022-08-03T05:01:03;2.50;;;2.30;;
10013;SDS011;45684;48.358;10.746;2022-08-03T05:03:31;2.80;;;2.60;;
10013;SDS011;45684;48.358;10.746;2022-08-03T05:05:59;2.90;;;2.70;;
10013;SDS011;45684;48.358;10.746;2022-08-03T05:08:35;2.80;;;2.60;;
10013;SDS011;45684;48.358;10.746;2022-08-03T05:11:12;2.90;;;2.70;;
10013;SDS011;45684;48.358;10.746;2022-08-03T05:13:39;3.23;;;2.40;;
10013;SDS011;45684;48.358;10.746;2022-08-03T05:16:07;2.70;;;2.50;;
10013;SDS011;45684;48.358;10.746;2022-08-03T05:18:35;3.03;;;2.73;;
10013;SDS011;45684;48.358;10.746;2022-08-03T05:21:03;2.87;;;2.67;;
10013;SDS011;45684;48.358;10.746;2022-08-03T05:23:31;2.93;;;2.63;;
10013;SDS011;45684;48.358;10.746;2022-08-03T05:25:59;4.00;;;3.07;;
10013;SDS011;45684;48.358;10.746;2022-08-03T05:28:28;2.87;;;2.67;;
10013;SDS011;45684;48.358;10.746;2022-08-03T05:30:56;2.80;;;2.60;;
10013;SDS011;45684;48.358;10.746;2022-08-03T05:33:24;2.90;;;2.70;;
10013;SDS011;45684;48.358;10.746;2022-08-03T05:35:52;2.93;;;2.60;;
10013;SDS011;45684;48.358;10.746;2022-08-03T05:38:28;3.27;;;2.73;;
10013;SDS011;45684;48.358;10.746;2022-08-03T05:41:00;3.77;;;2.73;;
10013;SDS011;45684;48.358;10.746;2022-08-03T05:43:50;4.00;;;2.60;;
10013;SDS011;45684;48.358;10.746;2022-08-03T05:46:19;2.90;;;2.57;;
10013;SDS011;45684;48.358;10.746;2022-08-03T05:48:47;3.33;;;3.00;;
10013;SDS011;45684;48.358;10.746;2022-08-03T05:51:14;3.47;;;2.80;;
10013;SDS011;45684;48.358;10.746;2022-08-03T05:53:43;3.97;;;2.63;;
10013;SDS011;45684;48.358;10.746;2022-08-03T05:56:11;3.40;;;2.90;;
10013;SDS011;45684;48.358;10.746;2022-08-03T05:58:42;2.87;;;2.67;;
10013;SDS011;45684;48.358;10.746;2022-08-03T06:01:12;2.70;;;2.50;;
10013;SDS011;45684;48.358;10.746;2022-08-03T06:03:40;3.00;;;2.80;;
10013;SDS011;45684;48.358;10.746;2022-08-03T06:06:08;5.93;;;2.90;;
10013;SDS011;45684;48.358;10.746;2022-08-03T06:08:37;3.03;;;2.70;;
10013;SDS011;45684;48.358;10.746;2022-08-03T06:11:05;3.23;;;3.03;;
10013;SDS011;45684;48.358;10.746;2022-08-03T06:13:33;3.10;;;2.90;;
10013;SDS011;45684;48.358;10.746;2022-08-03T06:16:02;2.80;;;2.60;;
10013;SDS011;45684;48.358;10.746;2022-08-03T06:18:31;3.00;;;2.80;;
10013;SDS011;45684;48.358;10.746;2022-08-03T06:20:59;5.77;;;3.03;;
10013;SDS011;45684;48.358;10.746;2022-08-03T06:23:40;3.07;;;2.80;;
10013;SDS011;45684;48.358;10.746;2022-08-03T06:26:20;2.80;;;2.60;;
10013;SDS011;45684;48.358;10.746;2022-08-03T06:28:48;2.93;;;2.73;;
10013;SDS011;45684;48.358;10.746;2022-08-03T06:31:18;2.73;;;2.53;;
10013;SDS011;45684;48.358;10.746;2022-08-03T06:33:49;3.50;;;3.20;;
10013;SDS011;45684;48.358;10.746;2022-08-03T06:36:38;2.73;;;2.53;;
10013;SDS011;45684;48.358;10.746;2022-08-03T06:39:06;3.10;;;2.80;;
10013;SDS011;45684;48.358;10.746;2022-08-03T06:41:34;2.77;;;2.60;;
10013;SDS011;45684;48.358;10.746;2022-08-03T06:44:06;3.70;;;2.87;;
10013;SDS011;45684;48.358;10.746;2022-08-03T06:46:34;4.13;;;2.50;;
10013;SDS011;45684;48.358;10.746;2022-08-03T06:49:03;2.30;;;2.20;;
10013;SDS011;45684;48.358;10.746;2022-08-03T06:51:31;3.50;;;2.27;;
10013;SDS011;45684;48.358;10.746;2022-08-03T06:54:19;2.30;;;2.20;;
10013;SDS011;45684;48.358;10.746;2022-08-03T06:56:49;3.03;;;2.80;;
10013;SDS011;45684;48.358;10.746;2022-08-03T06:59:17;2.83;;;2.57;;
10013;SDS011;45684;48.358;10.746;2022-08-03T07:02:05;4.33;;;2.70;;
10013;SDS011;45684;48.358;10.746;2022-08-03T07:04:36;3.30;;;3.00;;
10013;SDS011;45684;48.358;10.746;2022-08-03T07:07:04;2.80;;;2.60;;
10013;SDS011;45684;48.358;10.746;2022-08-03T07:09:32;2.37;;;2.17;;
10013;SDS011;45684;48.358;10.746;2022-08-03T07:12:00;2.53;;;2.33;;
10013;SDS011;45684;48.358;10.746;2022-08-03T07:14:28;2.53;;;2.40;;
10013;SDS011;45684;48.358;10.746;2022-08-03T07:16:56;2.70;;;2.50;;
10013;SDS011;45684;48.358;10.746;2022-08-03T07:19:23;2.33;;;2.13;;
10013;SDS011;45684;48.358;10.746;2022-08-03T07:21:53;3.23;;;2.27;;
10013;SDS011;45684;48.358;10.746;2022-08-03T07:24:20;2.30;;;2.13;;
10013;SDS011;45684;48.358;10.746;2022-08-03T07:26:48;2.37;;;2.27;;
10013;SDS011;45684;48.358;10.746;2022-08-03T07:29:16;2.30;;;2.10;;
10013;SDS011;45684;48.358;10.746;2022-08-03T07:31:44;2.17;;;1.97;;
10013;SDS011;45684;48.358;10.746;2022-08-03T07:34:12;2.30;;;2.13;;
10013;SDS011;45684;48.358;10.746;2022-08-03T07:36:40;2.30;;;2.10;;
10013;SDS011;45684;48.358;10.746;2022-08-03T07:39:09;3.00;;;2.20;;
10013;SDS011;45684;48.358;10.746;2022-08-03T07:41:41;2.67;;;2.47;;
10013;SDS011;45684;48.358;10.746;2022-08-03T07:44:08;2.00;;;1.90;;
10013;SDS011;45684;48.358;10.746;2022-08-03T07:46:36;1.90;;;1.80;;
10013;SDS011;45684;48.358;10.746;2022-08-03T07:49:04;2.13;;;2.03;;
10013;SDS011;45684;48.358;10.746;2022-08-03T07:51:32;1.90;;;1.80;;
10013;SDS011;45684;48.358;10.746;2022-08-03T07:54:00;1.90;;;1.80;;
10013;SDS011;45684;48.358;10.746;2022-08-03T07:56:29;2.00;;;1.90;;
10013;SDS011;45684;48.358;10.746;2022-08-03T07:58:57;1.95;;;1.80;;
10013;SDS011;45684;48.358;10.746;2022-08-03T08:01:27;1.80;;;1.70;;
10013;SDS011;45684;48.358;10.746;2022-08-03T08:03:58;1.70;;;1.60;;
10013;SDS011;45684;48.358;10.746;2022-08-03T08:06:25;1.88;;;1.77;;
10013;SDS011;45684;48.358;10.746;2022-08-03T08:08:53;3.20;;;1.90;;
10013;SDS011;45684;48.358;10.746;2022-08-03T08:11:24;2.85;;;1.80;;
10013;SDS011;45684;48.358;10.746;2022-08-03T08:13:54;1.80;;;1.70;;
10013;SDS011;45684;48.358;10.746;2022-08-03T08:16:22;1.80;;;1.70;;
10013;SDS011;45684;48.358;10.746;2022-08-03T08:18:49;1.90;;;1.80;;
10013;SDS011;45684;48.358;10.746;2022-08-03T08:21:17;2.63;;;1.83;;
10013;SDS011;45684;48.358;10.746;2022-08-03T08:23:45;2.00;;;1.90;;
10013;SDS011;45684;48.358;10.746;2022-08-03T08:26:22;2.30;;;1.90;;
10013;SDS011;45684;48.358;10.746;2022-08-03T08:28:50;2.30;;;2.00;;
10013;SDS011;45684;48.358;10.746;2022-08-03T08:31:19;2.00;;;1.80;;
10013;SDS011;45684;48.358;10.746;2022-08-03T08:33:47;3.05;;;1.70;;
10013;SDS011;45684;48.358;10.746;2022-08-03T08:36:31;1.80;;;1.70;;
10013;SDS011;45684;48.358;10.746;2022-08-03T08:38:59;1.67;;;1.55;;
10013;SDS011;45684;48.358;10.746;2022-08-03T08:41:28;1.80;;;1.50;;
10013;SDS011;45684;48.358;10.746;2022-08-03T08:43:59;1.70;;;1.60;;
10013;SDS011;45684;48.358;10.746;2022-08-03T08:46:29;1.60;;;1.50;;
10013;SDS011;45684;48.358;10.746;2022-08-03T08:48:59;1.60;;;1.50;;
10013;SDS011;45684;48.358;10.746;2022-08-03T08:51:30;1.50;;;1.42;;
10013;SDS011;45684;48.358;10.746;2022-08-03T08:54:20;1.42;;;1.40;;
10013;SDS011;45684;48.358;10.746;2022-08-03T08:56:49;1.70;;;1.60;;
10013;SDS011;45684;48.358;10.746;2022-08-03T08:59:17;1.88;;;1.48;;
10013;SDS011;45684;48.358;10.746;2022-08-03T09:01:47;1.55;;;1.20;;
10013;SDS011;45684;48.358;10.746;2022-08-03T09:04:15;1.42;;;1.30;;
10013;SDS011;45684;48.358;10.746;2022-08-03T09:06:44;1.60;;;1.50;;
10013;SDS011;45684;48.358;10.746;2022-08-03T09:09:30;2.17;;;1.52;;
10013;SDS011;45684;48.358;10.746;2022-08-03T09:12:17;1.27;;;1.27;;
10013;SDS011;45684;48.358;10.746;2022-08-03T09:15:15;1.50;;;1.40;;
10013;SDS011;45684;48.358;10.746;2022-08-03T09:17:46;1.30;;;1.30;;
10013;SDS011;45684;48.358;10.746;2022-08-03T09:20:17;1.15;;;1.10;;
10013;SDS011;45684;48.358;10.746;2022-08-03T09:22:53;1.83;;;1.67;;
10013;SDS011;45684;48.358;10.746;2022-08-03T09:25:26;1.20;;;1.20;;
10013;SDS011;45684;48.358;10.746;2022-08-03T09:28:07;1.92;;;1.58;;
10013;SDS011;45684;48.358;10.746;2022-08-03T09:30:37;1.00;;;1.00;;
10013;SDS011;45684;48.358;10.746;2022-08-03T09:33:08;1.25;;;1.10;;
10013;SDS011;45684;48.358;10.746;2022-08-03T09:35:41;1.58;;;1.23;;
10013;SDS011;45684;48.358;10.746;2022-08-03T09:38:19;1.52;;;1.30;;
10013;SDS011;45684;48.358;10.746;2022-08-03T09:40:53;1.50;;;1.30;;
10013;SDS011;45684;48.358;10.746;2022-08-03T09:43:25;1.00;;;1.00;;
10013;SDS011;45684;48.358;10.746;2022-08-03T09:46:01;1.20;;;1.20;;
10013;SDS011;45684;48.358;10.746;2022-08-03T09:48:31;1.30;;;1.20;;
10013;SDS011;45684;48.358;10.746;2022-08-03T09:51:00;1.10;;;1.10;;
10013;SDS011;45684;48.358;10.746;2022-08-03T09:53:42;1.27;;;1.20;;
10013;SDS011;45684;48.358;10.746;2022-08-03T09:56:36;0.90;;;0.90;;
10013;SDS011;45684;48.358;10.746;2022-08-03T09:59:05;1.52;;;1.23;;
10013;SDS011;45684;48.358;10.746;2022-08-03T10:01:33;1.23;;;1.13;;
10013;SDS011;45684;48.358;10.746;2022-08-03T10:04:04;1.33;;;1.10;;
10013;SDS011;45684;48.358;10.746;2022-08-03T10:06:32;1.08;;;1.08;;
10013;SDS011;45684;48.358;10.746;2022-08-03T10:09:06;1.20;;;0.98;;
10013;SDS011;45684;48.358;10.746;2022-08-03T10:11:35;1.00;;;1.00;;
10013;SDS011;45684;48.358;10.746;2022-08-03T10:14:07;1.00;;;0.93;;
10013;SDS011;45684;48.358;10.746;2022-08-03T10:16:37;1.40;;;0.98;;
10013;SDS011;45684;48.358;10.746;2022-08-03T10:19:07;1.00;;;1.00;;
10013;SDS011;45684;48.358;10.746;2022-08-03T10:21:36;1.00;;;1.00;;
10013;SDS011;45684;48.358;10.746;2022-08-03T10:24:06;1.20;;;1.08;;
10013;SDS011;45684;48.358;10.746;2022-08-03T10:26:37;1.80;;;1.00;;
10013;SDS011;45684;48.358;10.746;2022-08-03T10:29:17;1.17;;;0.88;;
10013;SDS011;45684;48.358;10.746;2022-08-03T10:31:50;0.95;;;0.95;;
10013;SDS011;45684;48.358;10.746;2022-08-03T10:34:25;1.38;;;1.10;;
10013;SDS011;45684;48.358;10.746;2022-08-03T10:36:55;1.23;;;1.00;;
10013;SDS011;45684;48.358;10.746;2022-08-03T10:39:26;0.80;;;0.80;;
10013;SDS011;45684;48.358;10.746;2022-08-03T10:41:56;2.53;;;1.00;;
10013;SDS011;45684;48.358;10.746;2022-08-03T10:44:26;0.90;;;0.90;;
10013;SDS011;45684;48.358;10.746;2022-08-03T10:46:59;0.60;;;0.60;;
10013;SDS011;45684;48.358;10.746;2022-08-03T10:49:29;2.75;;;1.10;;
10013;SDS011;45684;48.358;10.746;2022-08-03T10:52:00;0.80;;;0.80;;
10013;SDS011;45684;48.358;10.746;2022-08-03T10:54:39;0.80;;;0.80;;
10013;SDS011;45684;48.358;10.746;2022-08-03T10:57:41;1.15;;;0.90;;
10013;SDS011;45684;48.358;10.746;2022-08-03T11:00:15;0.98;;;0.98;;
10013;SDS011;45684;48.358;10.746;2022-08-03T11:03:00;0.95;;;0.80;;
10013;SDS011;45684;48.358;10.746;2022-08-03T11:05:31;1.40;;;0.93;;
10013;SDS011;45684;48.358;10.746;2022-08-03T11:08:19;1.02;;;0.90;;
10013;SDS011;45684;48.358;10.746;2022-08-03T11:10:56;0.93;;;0.90;;
10013;SDS011;45684;48.358;10.746;2022-08-03T11:13:26;0.80;;;0.80;;
10013;SDS011;45684;48.358;10.746;2022-08-03T11:15:58;1.00;;;1.00;;
10013;SDS011;45684;48.358;10.746;2022-08-03T11:18:31;1.13;;;0.82;;
10013;SDS011;45684;48.358;10.746;2022-08-03T11:21:00;2.88;;;1.00;;
10013;SDS011;45684;48.358;10.746;2022-08-03T11:23:41;0.93;;;0.93;;
10013;SDS011;45684;48.358;10.746;2022-08-03T11:26:30;2.20;;;1.30;;
10013;SDS011;45684;48.358;10.746;2022-08-03T11:31:53;0.73;;;0.73;;
10013;SDS011;45684;48.358;10.746;2022-08-03T11:34:21;0.90;;;0.90;;
10013;SDS011;45684;48.358;10.746;2022-08-03T11:39:55;3.90;;;1.08;;
10013;SDS011;45684;48.358;10.746;2022-08-03T11:42:39;1.25;;;1.23;;
10013;SDS011;45684;48.358;10.746;2022-08-03T11:45:14;1.00;;;1.00;;
10013;SDS011;45684;48.358;10.746;2022-08-03T11:47:42;1.95;;;1.08;;
10013;SDS011;45684;48.358;10.746;2022-08-03T11:50:15;0.82;;;0.82;;
10013;SDS011;45684;48.358;10.746;2022-08-03T11:52:47;1.10;;;1.00;;
10013;SDS011;45684;48.358;10.746;2022-08-03T11:55:17;1.38;;;1.00;;
10013;SDS011;45684;48.358;10.746;2022-08-03T11:57:47;0.93;;;0.93;;
10013;SDS011;45684;48.358;10.746;2022-08-03T12:00:35;1.58;;;0.70;;
10013;SDS011;45684;48.358;10.746;2022-08-03T12:03:04;1.27;;;1.17;;
10013;SDS011;45684;48.358;10.746;2022-08-03T12:05:44;2.08;;;0.90;;
10013;SDS011;45684;48.358;10.746;2022-08-03T12:08:29;1.13;;;1.08;;
10013;SDS011;45684;48.358;10.746;2022-08-03T12:10:59;0.88;;;0.85;;
10013;SDS011;45684;48.358;10.746;2022-08-03T12:13:37;1.00;;;0.85;;
10013;SDS011;45684;48.358;10.746;2022-08-03T12:16:26;1.10;;;1.00;;
10013;SDS011;45684;48.358;10.746;2022-08-03T12:18:55;0.90;;;0.90;;
10013;SDS011;45684;48.358;10.746;2022-08-03T12:21:25;1.10;;;1.00;;
10013;SDS011;45684;48.358;10.746;2022-08-03T12:23:56;0.70;;;0.70;;
10013;SDS011;45684;48.358;10.746;2022-08-03T12:26:25;0.90;;;0.90;;
10013;SDS011;45684;48.358;10.746;2022-08-03T12:28:54;1.17;;;1.08;;
10013;SDS011;45684;48.358;10.746;2022-08-03T12:31:22;1.50;;;0.88;;
10013;SDS011;45684;48.358;10.746;2022-08-03T12:33:54;1.02;;;0.82;;
10013;SDS011;45684;48.358;10.746;2022-08-03T12:36:25;1.08;;;1.00;;
10013;SDS011;45684;48.358;10.746;2022-08-03T12:38:54;2.20;;;0.90;;
10013;SDS011;45684;48.358;10.746;2022-08-03T12:41:28;2.45;;;1.00;;
10013;SDS011;45684;48.358;10.746;2022-08-03T12:43:57;1.00;;;1.00;;
10013;SDS011;45684;48.358;10.746;2022-08-03T12:46:29;1.25;;;1.02;;
10013;SDS011;45684;48.358;10.746;2022-08-03T12:49:04;1.05;;;1.02;;
10013;SDS011;45684;48.358;10.746;2022-08-03T12:51:33;0.80;;;0.80;;
10013;SDS011;45684;48.358;10.746;2022-08-03T12:54:04;0.90;;;0.90;;
10013;SDS011;45684;48.358;10.746;2022-08-03T12:56:32;1.25;;;0.88;;
10013;SDS011;45684;48.358;10.746;2022-08-03T13:01:57;2.20;;;1.10;;
10013;SDS011;45684;48.358;10.746;2022-08-03T13:04:26;1.17;;;0.90;;
10013;SDS011;45684;48.358;10.746;2022-08-03T13:06:56;2.42;;;1.10;;
10013;SDS011;45684;48.358;10.746;2022-08-03T13:09:30;1.40;;;0.88;;
10013;SDS011;45684;48.358;10.746;2022-08-03T13:12:08;1.90;;;1.20;;
10013;SDS011;45684;48.358;10.746;2022-08-03T13:14:37;1.90;;;1.00;;
10013;SDS011;45684;48.358;10.746;2022-08-03T13:17:05;4.15;;;1.17;;
10013;SDS011;45684;48.358;10.746;2022-08-03T13:19:34;9.18;;;1.73;;
10013;SDS011;45684;48.358;10.746;2022-08-03T13:22:09;2.92;;;1.20;;
10013;SDS011;45684;48.358;10.746;2022-08-03T13:24:39;1.85;;;1.02;;
10013;SDS011;45684;48.358;10.746;2022-08-03T13:27:07;0.90;;;0.90;;
10013;SDS011;45684;48.358;10.746;2022-08-03T13:29:55;1.30;;;1.00;;
10013;SDS011;45684;48.358;10.746;2022-08-03T13:32:24;2.67;;;0.90;;
10013;SDS011;45684;48.358;10.746;2022-08-03T13:34:52;2.67;;;0.90;;
10013;SDS011;45684;48.358;10.746;2022-08-03T13:37:20;1.15;;;1.00;;
10013;SDS011;45684;48.358;10.746;2022-08-03T13:39:50;0.93;;;0.93;;
10013;SDS011;45684;48.358;10.746;2022-08-03T13:42:25;1.52;;;1.10;;
10013;SDS011;45684;48.358;10.746;2022-08-03T13:44:53;3.08;;;0.90;;
10013;SDS011;45684;48.358;10.746;2022-08-03T13:47:21;0.85;;;0.85;;
10013;SDS011;45684;48.358;10.746;2022-08-03T13:49:49;0.90;;;0.90;;
10013;SDS011;45684;48.358;10.746;2022-08-03T13:52:25;0.70;;;0.70;;
10013;SDS011;45684;48.358;10.746;2022-08-03T13:54:55;1.20;;;1.00;;
10013;SDS011;45684;48.358;10.746;2022-08-03T13:57:23;1.65;;;0.82;;
10013;SDS011;45684;48.358;10.746;2022-08-03T14:00:11;3.47;;;1.30;;
10013;SDS011;45684;48.358;10.746;2022-08-03T14:02:41;0.98;;;0.90;;
10013;SDS011;45684;48.358;10.746;2022-08-03T14:05:09;0.93;;;0.93;;
10013;SDS011;45684;48.358;10.746;2022-08-03T14:07:37;1.52;;;0.80;;
10013;SDS011;45684;48.358;10.746;2022-08-03T14:10:07;1.00;;;1.00;;
10013;SDS011;45684;48.358;10.746;2022-08-03T14:12:35;1.42;;;1.13;;
10013;SDS011;45684;48.358;10.746;2022-08-03T14:15:04;2.05;;;1.00;;
10013;SDS011;45684;48.358;10.746;2022-08-03T14:17:35;1.00;;;1.00;;
10013;SDS011;45684;48.358;10.746;2022-08-03T14:20:15;1.25;;;0.90;;
10013;SDS011;45684;48.358;10.746;2022-08-03T14:23:02;2.28;;;0.90;;
10013;SDS011;45684;48.358;10.746;2022-08-03T14:25:32;0.88;;;0.88;;
10013;SDS011;45684;48.358;10.746;2022-08-03T14:28:09;0.98;;;0.90;;
10013;SDS011;45684;48.358;10.746;2022-08-03T14:30:38;2.33;;;0.80;;
10013;SDS011;45684;48.358;10.746;2022-08-03T14:33:06;1.40;;;0.88;;
10013;SDS011;45684;48.358;10.746;2022-08-03T14:35:34;2.95;;;1.17;;
10013;SDS011;45684;48.358;10.746;2022-08-03T14:38:02;0.98;;;0.90;;
10013;SDS011;45684;48.358;10.746;2022-08-03T14:40:29;1.20;;;1.10;;
10013;SDS011;45684;48.358;10.746;2022-08-03T14:42:59;1.58;;;1.00;;
10013;SDS011;45684;48.358;10.746;2022-08-03T14:45:27;0.85;;;0.85;;
10013;SDS011;45684;48.358;10.746;2022-08-03T14:47:55;2.05;;;1.20;;
10013;SDS011;45684;48.358;10.746;2022-08-03T14:50:45;1.23;;;1.10;;
10013;SDS011;45684;48.358;10.746;2022-08-03T14:53:17;2.33;;;1.05;;
10013;SDS011;45684;48.358;10.746;2022-08-03T14:55:47;0.80;;;0.80;;
10013;SDS011;45684;48.358;10.746;2022-08-03T14:58:17;1.95;;;1.10;;
10013;SDS011;45684;48.358;10.746;2022-08-03T15:00:46;2.00;;;1.20;;
10013;SDS011;45684;48.358;10.746;2022-08-03T15:03:22;1.08;;;1.08;;
10013;SDS011;45684;48.358;10.746;2022-08-03T15:05:51;3.17;;;1.35;;
10013;SDS011;45684;48.358;10.746;2022-08-03T15:08:21;0.90;;;0.90;;
10013;SDS011;45684;48.358;10.746;2022-08-03T15:10:51;1.70;;;0.93;;